Time;durP1;ratioP1;P1;durP2;ratioP2;P2;SDS_P1;SDS_P2;PMS_P1;PMS_P2;Temp;Humidity;BMP_temperature;BMP_pressure;BME280_temperature;BME280_humidity;BME280_pressure;Samples;Min_cycle;Max_cycle;Signal;HPM_P1;HPM_P2
2023/11/18 00:02:25;;;;;;;2.30;1.75;;;;;;;;;;5034042;28;20033;-67
2023/11/18 00:04:51;;;;;;;1.65;1.52;;;;;;;;;;5026437;28;20124;-69
2023/11/18 00:07:17;;;;;;;2.03;1.58;;;;;;;;;;5012154;28;20046;-68
2023/11/18 00:09:46;;;;;;;4.07;1.75;;;;;;;;;;5016023;28;20138;-68
2023/11/18 00:12:13;;;;;;;6.25;2.65;;;;;;;;;;5015783;28;20062;-69
2023/11/18 00:14:40;;;;;;;3.17;2.05;;;;;;;;;;5016760;28;20037;-68
2023/11/18 00:17:06;;;;;;;1.40;1.30;;;;;;;;;;5015298;28;20031;-69
2023/11/18 00:19:34;;;;;;;1.80;1.38;;;;;;;;;;5015979;28;20049;-68
2023/11/18 00:22:00;;;;;;;1.50;1.40;;;;;;;;;;5019873;28;20244;-68
2023/11/18 00:24:26;;;;;;;1.55;1.45;;;;;;;;;;5019504;28;20022;-68
2023/11/18 00:26:52;;;;;;;1.20;1.20;;;;;;;;;;5013176;28;20582;-68
2023/11/18 00:29:18;;;;;;;1.40;1.30;;;;;;;;;;5015584;28;20031;-68
2023/11/18 00:31:44;;;;;;;1.17;1.17;;;;;;;;;;5013744;28;20485;-68
2023/11/18 00:34:11;;;;;;;1.08;1.08;;;;;;;;;;5014295;28;20037;-66
2023/11/18 00:36:37;;;;;;;1.90;1.30;;;;;;;;;;5037466;28;20017;-68
2023/11/18 00:39:04;;;;;;;1.20;1.20;;;;;;;;;;5015125;28;20616;-67
2023/11/18 00:41:30;;;;;;;2.17;1.45;;;;;;;;;;5027010;28;20026;-69
2023/11/18 00:43:56;;;;;;;1.10;1.10;;;;;;;;;;5017011;28;20037;-68
2023/11/18 00:46:22;;;;;;;1.30;1.20;;;;;;;;;;5016957;28;20052;-68
2023/11/18 00:48:48;;;;;;;1.00;1.00;;;;;;;;;;5016488;28;20033;-69
2023/11/18 00:51:14;;;;;;;1.00;1.00;;;;;;;;;;5016361;28;20030;-67
2023/11/18 00:53:40;;;;;;;1.10;1.10;;;;;;;;;;5019576;28;20356;-66
2023/11/18 00:56:09;;;;;;;1.20;1.20;;;;;;;;;;5013358;28;20033;-67
2023/11/18 00:58:39;;;;;;;1.90;1.20;;;;;;;;;;5018534;28;20033;-67
2023/11/18 01:01:06;;;;;;;2.03;1.10;;;;;;;;;;5016646;28;20036;-67
2023/11/18 01:03:34;;;;;;;1.45;1.10;;;;;;;;;;5024597;28;20650;-69
2023/11/18 01:06:00;;;;;;;1.33;1.23;;;;;;;;;;5034097;28;20475;-67
2023/11/18 01:08:29;;;;;;;1.20;1.20;;;;;;;;;;5038171;28;20394;-67
2023/11/18 01:10:55;;;;;;;1.10;1.10;;;;;;;;;;5037849;28;20029;-71
2023/11/18 01:13:21;;;;;;;1.10;1.10;;;;;;;;;;5032427;28;20033;-67
2023/11/18 01:15:47;;;;;;;1.10;1.10;;;;;;;;;;5038212;28;20158;-68
2023/11/18 01:18:13;;;;;;;1.30;1.30;;;;;;;;;;5015498;28;20592;-67
2023/11/18 01:20:39;;;;;;;1.30;1.20;;;;;;;;;;5032846;28;20378;-67
2023/11/18 01:23:05;;;;;;;1.20;1.20;;;;;;;;;;5027544;28;20681;-66
2023/11/18 01:25:31;;;;;;;1.30;1.20;;;;;;;;;;5035169;28;20040;-67
2023/11/18 01:27:59;;;;;;;1.15;1.15;;;;;;;;;;5031717;28;20395;-68
2023/11/18 01:30:26;;;;;;;1.10;1.10;;;;;;;;;;5035633;28;20037;-68
2023/11/18 01:32:52;;;;;;;1.50;1.40;;;;;;;;;;5035852;28;20562;-68
2023/11/18 01:35:19;;;;;;;1.52;1.27;;;;;;;;;;5029800;28;20040;-68
2023/11/18 01:37:45;;;;;;;1.20;1.20;;;;;;;;;;5040036;28;20417;-67
2023/11/18 01:40:12;;;;;;;1.30;1.30;;;;;;;;;;5033858;28;20405;-68
2023/11/18 01:42:39;;;;;;;1.40;1.30;;;;;;;;;;5036981;28;20549;-68
2023/11/18 01:45:08;;;;;;;1.83;1.40;;;;;;;;;;5043185;28;20064;-70
2023/11/18 01:47:34;;;;;;;1.25;1.25;;;;;;;;;;5040610;28;20336;-67
2023/11/18 01:50:01;;;;;;;1.58;1.48;;;;;;;;;;5040758;28;20041;-66
2023/11/18 01:52:29;;;;;;;1.40;1.30;;;;;;;;;;5041539;28;20033;-67
2023/11/18 01:54:56;;;;;;;1.60;1.50;;;;;;;;;;5022446;28;20040;-67
2023/11/18 01:57:22;;;;;;;1.52;1.42;;;;;;;;;;5037152;28;20834;-66
2023/11/18 01:59:49;;;;;;;1.60;1.50;;;;;;;;;;5020288;28;20029;-67
2023/11/18 02:02:15;;;;;;;1.63;1.52;;;;;;;;;;5041072;28;20033;-67
2023/11/18 02:04:41;;;;;;;1.65;1.55;;;;;;;;;;5036041;28;20519;-68
2023/11/18 02:07:09;;;;;;;1.70;1.60;;;;;;;;;;5038336;28;20049;-71
2023/11/18 02:09:35;;;;;;;1.88;1.60;;;;;;;;;;5038986;28;20092;-68
2023/11/18 02:12:16;;;;;;;1.60;1.50;;;;;;;;;;5040474;28;20112;-69
2023/11/18 02:14:43;;;;;;;1.48;1.38;;;;;;;;;;5036757;28;20119;-67
2023/11/18 02:17:10;;;;;;;1.70;1.60;;;;;;;;;;5042188;28;20025;-68
2023/11/18 02:19:37;;;;;;;2.00;1.52;;;;;;;;;;5039863;28;20028;-68
2023/11/18 02:22:06;;;;;;;1.90;1.70;;;;;;;;;;5042516;28;20761;-69
2023/11/18 02:24:40;;;;;;;2.00;1.80;;;;;;;;;;5035128;28;20028;-68
2023/11/18 02:27:07;;;;;;;2.00;1.83;;;;;;;;;;5017109;28;20057;-70
2023/11/18 02:29:37;;;;;;;1.90;1.70;;;;;;;;;;5030157;28;20024;-68
2023/11/18 02:32:16;;;;;;;1.90;1.70;;;;;;;;;;5019394;28;20037;-68
2023/11/18 02:34:47;;;;;;;2.58;1.73;;;;;;;;;;5037345;28;20025;-67
2023/11/18 02:37:14;;;;;;;3.70;1.75;;;;;;;;;;5036687;28;20049;-67
2023/11/18 02:39:42;;;;;;;1.70;1.60;;;;;;;;;;5038887;28;20107;-71
2023/11/18 02:42:08;;;;;;;2.05;1.85;;;;;;;;;;5018346;28;20729;-68
2023/11/18 02:44:36;;;;;;;2.10;1.90;;;;;;;;;;5034307;28;20780;-68
2023/11/18 02:47:05;;;;;;;2.40;1.88;;;;;;;;;;5039050;28;20029;-67
2023/11/18 02:49:31;;;;;;;3.80;2.10;;;;;;;;;;5043009;28;20025;-67
2023/11/18 02:51:57;;;;;;;2.95;1.83;;;;;;;;;;5036492;28;20056;-68
2023/11/18 02:54:24;;;;;;;2.45;2.10;;;;;;;;;;5042533;28;21353;-69
2023/11/18 02:56:50;;;;;;;2.25;2.05;;;;;;;;;;5006885;28;20446;-66
2023/11/18 02:59:17;;;;;;;2.47;2.28;;;;;;;;;;5046234;28;20071;-67
2023/11/18 03:01:44;;;;;;;2.67;2.10;;;;;;;;;;5035488;28;20112;-67
2023/11/18 03:04:11;;;;;;;3.30;1.70;;;;;;;;;;5035642;28;20075;-66
2023/11/18 03:06:37;;;;;;;3.05;2.35;;;;;;;;;;5037041;28;20041;-67
2023/11/18 03:09:07;;;;;;;2.80;2.20;;;;;;;;;;5035989;28;20037;-67
2023/11/18 03:11:33;;;;;;;2.78;2.30;;;;;;;;;;5042265;28;20611;-68
2023/11/18 03:13:59;;;;;;;2.42;2.15;;;;;;;;;;5042625;28;20363;-67
2023/11/18 03:16:25;;;;;;;3.78;2.13;;;;;;;;;;5036618;28;20808;-67
2023/11/18 03:18:51;;;;;;;2.53;2.20;;;;;;;;;;5035285;28;20029;-66
2023/11/18 03:21:21;;;;;;;2.78;2.47;;;;;;;;;;5037250;28;20017;-66
2023/11/18 03:23:47;;;;;;;3.03;2.58;;;;;;;;;;5040749;28;20040;-67
2023/11/18 03:26:13;;;;;;;2.60;2.28;;;;;;;;;;5033300;28;20042;-66
2023/11/18 03:28:40;;;;;;;2.20;2.00;;;;;;;;;;5043192;28;20116;-67
2023/11/18 03:31:07;;;;;;;2.50;2.30;;;;;;;;;;5028104;28;20041;-67
2023/11/18 03:33:33;;;;;;;2.85;2.17;;;;;;;;;;5025490;28;20036;-66
2023/11/18 03:36:00;;;;;;;2.70;2.33;;;;;;;;;;5038383;28;20116;-66
2023/11/18 03:38:28;;;;;;;4.40;2.45;;;;;;;;;;5020280;28;20482;-66
2023/11/18 03:40:55;;;;;;;2.40;2.20;;;;;;;;;;5035424;28;20030;-66
2023/11/18 03:43:22;;;;;;;1.90;1.70;;;;;;;;;;5034945;28;20627;-66
2023/11/18 03:45:48;;;;;;;3.35;2.25;;;;;;;;;;5043747;28;20035;-66
2023/11/18 03:48:14;;;;;;;2.28;2.08;;;;;;;;;;5020181;28;20064;-66
2023/11/18 03:50:44;;;;;;;4.35;2.20;;;;;;;;;;5040273;28;20478;-66
2023/11/18 03:53:11;;;;;;;2.67;2.03;;;;;;;;;;5039828;28;20056;-67
2023/11/18 03:55:37;;;;;;;3.13;2.10;;;;;;;;;;5018574;28;20493;-66
2023/11/18 03:58:03;;;;;;;3.28;2.17;;;;;;;;;;5030663;28;20056;-67
2023/11/18 04:00:29;;;;;;;3.28;2.00;;;;;;;;;;5017693;28;20089;-67
2023/11/18 04:02:56;;;;;;;2.10;1.90;;;;;;;;;;5010767;28;20512;-67
2023/11/18 04:05:23;;;;;;;2.00;1.80;;;;;;;;;;5017070;28;20033;-68
2023/11/18 04:07:49;;;;;;;1.80;1.70;;;;;;;;;;5014227;28;20079;-68
2023/11/18 04:10:17;;;;;;;2.30;2.10;;;;;;;;;;5020441;28;20029;-67
2023/11/18 04:12:46;;;;;;;1.98;1.77;;;;;;;;;;5016023;28;20090;-67
2023/11/18 04:15:13;;;;;;;2.50;1.75;;;;;;;;;;5015111;28;20021;-67
2023/11/18 04:17:40;;;;;;;1.95;1.80;;;;;;;;;;5017540;28;20026;-68
2023/11/18 04:20:10;;;;;;;1.80;1.70;;;;;;;;;;5011928;28;20067;-67
2023/11/18 04:22:43;;;;;;;1.75;1.65;;;;;;;;;;5019407;28;20437;-67
2023/11/18 04:25:10;;;;;;;2.05;1.85;;;;;;;;;;5013110;28;20471;-66
2023/11/18 04:27:36;;;;;;;3.45;2.13;;;;;;;;;;5010499;28;20171;-68
2023/11/18 04:30:05;;;;;;;1.90;1.80;;;;;;;;;;5008954;28;20486;-67
2023/11/18 04:32:35;;;;;;;2.00;1.80;;;;;;;;;;5015717;28;20069;-71
2023/11/18 04:35:06;;;;;;;1.92;1.77;;;;;;;;;;5015265;28;20490;-67
2023/11/18 04:37:33;;;;;;;1.95;1.75;;;;;;;;;;5013937;28;20033;-66
2023/11/18 04:40:00;;;;;;;3.30;1.98;;;;;;;;;;5020630;28;20529;-66
2023/11/18 04:42:26;;;;;;;2.40;2.13;;;;;;;;;;5016372;28;20109;-67
2023/11/18 04:44:52;;;;;;;2.38;1.83;;;;;;;;;;5012548;28;20037;-70
2023/11/18 04:47:18;;;;;;;3.15;2.03;;;;;;;;;;5014452;28;21998;-66
2023/11/18 04:49:44;;;;;;;3.33;1.80;;;;;;;;;;5017767;28;20383;-67
2023/11/18 04:52:11;;;;;;;2.42;1.95;;;;;;;;;;5016707;28;20033;-66
2023/11/18 04:54:37;;;;;;;3.50;2.10;;;;;;;;;;5023312;28;20032;-68
2023/11/18 04:57:03;;;;;;;2.25;1.70;;;;;;;;;;5018846;28;20038;-67
2023/11/18 04:59:30;;;;;;;2.60;2.00;;;;;;;;;;5016886;28;20499;-69
2023/11/18 05:01:57;;;;;;;2.00;1.80;;;;;;;;;;5016355;28;20045;-67
2023/11/18 05:04:23;;;;;;;2.40;1.73;;;;;;;;;;5033512;28;20092;-67
2023/11/18 05:06:49;;;;;;;1.92;1.75;;;;;;;;;;5037449;28;20138;-66
2023/11/18 05:09:18;;;;;;;1.73;1.63;;;;;;;;;;5035733;28;20030;-69
2023/11/18 05:11:45;;;;;;;2.03;1.85;;;;;;;;;;5037064;28;20029;-68
2023/11/18 05:14:11;;;;;;;2.72;1.70;;;;;;;;;;5042027;28;20037;-70
2023/11/18 05:16:37;;;;;;;1.70;1.60;;;;;;;;;;5037587;28;20029;-70
2023/11/18 05:19:03;;;;;;;2.08;1.88;;;;;;;;;;5037878;28;20041;-71
2023/11/18 05:21:29;;;;;;;2.00;1.70;;;;;;;;;;5039481;28;20063;-71
2023/11/18 05:23:55;;;;;;;1.70;1.60;;;;;;;;;;5037138;28;20048;-68
2023/11/18 05:26:21;;;;;;;2.22;1.60;;;;;;;;;;5035197;28;20029;-67
2023/11/18 05:28:48;;;;;;;2.55;1.80;;;;;;;;;;5036033;28;20549;-67
2023/11/18 05:31:16;;;;;;;1.73;1.63;;;;;;;;;;5016195;28;20029;-66
2023/11/18 05:33:42;;;;;;;3.50;1.77;;;;;;;;;;5033422;28;20112;-68
2023/11/18 05:36:10;;;;;;;2.38;1.67;;;;;;;;;;5013991;28;20103;-68
2023/11/18 05:38:37;;;;;;;3.20;2.03;;;;;;;;;;5037435;28;20332;-67
2023/11/18 05:41:05;;;;;;;3.42;1.88;;;;;;;;;;5011065;28;20033;-67
2023/11/18 05:43:39;;;;;;;3.97;1.85;;;;;;;;;;5035810;28;20098;-67
2023/11/18 05:46:20;;;;;;;3.63;1.83;;;;;;;;;;5035653;28;20346;-67
2023/11/18 05:48:47;;;;;;;3.30;2.03;;;;;;;;;;5038113;28;20138;-67
2023/11/18 05:51:13;;;;;;;5.30;2.03;;;;;;;;;;5037097;28;20495;-67
2023/11/18 05:53:45;;;;;;;1.63;1.52;;;;;;;;;;5031835;28;20030;-66
2023/11/18 05:56:11;;;;;;;2.70;1.75;;;;;;;;;;5028414;28;20021;-66
2023/11/18 05:58:39;;;;;;;3.58;1.70;;;;;;;;;;5035507;28;20132;-67
2023/11/18 06:01:07;;;;;;;5.28;2.10;;;;;;;;;;5031184;28;20394;-67
2023/11/18 06:03:33;;;;;;;5.13;1.83;;;;;;;;;;5031219;28;20048;-67
2023/11/18 06:05:59;;;;;;;3.20;2.00;;;;;;;;;;5032578;28;20443;-67
2023/11/18 06:08:25;;;;;;;3.80;2.00;;;;;;;;;;5031008;28;20080;-67
2023/11/18 06:10:56;;;;;;;2.40;1.90;;;;;;;;;;5027986;28;20051;-67
2023/11/18 06:13:23;;;;;;;6.15;1.98;;;;;;;;;;5034112;28;20052;-66
2023/11/18 06:15:51;;;;;;;5.57;2.15;;;;;;;;;;5032395;28;20051;-67
2023/11/18 06:18:19;;;;;;;3.75;1.98;;;;;;;;;;5030758;28;20443;-66
2023/11/18 06:20:45;;;;;;;3.47;1.90;;;;;;;;;;5033086;28;20355;-67
2023/11/18 06:23:11;;;;;;;4.00;3.03;;;;;;;;;;5027230;28;20090;-66
2023/11/18 06:25:37;;;;;;;4.53;1.98;;;;;;;;;;5035896;28;20040;-68
2023/11/18 06:28:04;;;;;;;6.88;2.70;;;;;;;;;;5032291;28;20547;-67
2023/11/18 06:30:30;;;;;;;11.05;2.83;;;;;;;;;;5040111;28;20029;-67
2023/11/18 06:32:56;;;;;;;4.50;2.00;;;;;;;;;;5036060;28;20041;-67
2023/11/18 06:35:22;;;;;;;5.00;2.10;;;;;;;;;;5037684;28;20170;-67
2023/11/18 06:37:48;;;;;;;4.20;2.30;;;;;;;;;;5034259;28;20029;-67
2023/11/18 06:40:18;;;;;;;3.80;2.50;;;;;;;;;;5030235;28;20035;-68
2023/11/18 06:42:47;;;;;;;7.13;2.20;;;;;;;;;;5029781;28;20025;-67
2023/11/18 06:45:14;;;;;;;4.05;1.88;;;;;;;;;;5035017;28;20036;-68
2023/11/18 06:47:44;;;;;;;8.25;2.75;;;;;;;;;;5042904;28;20028;-67
2023/11/18 06:50:14;;;;;;;10.52;3.45;;;;;;;;;;5034697;28;20155;-67
2023/11/18 06:52:41;;;;;;;4.45;3.15;;;;;;;;;;5040171;28;20387;-66
2023/11/18 06:55:08;;;;;;;8.23;2.30;;;;;;;;;;5016166;28;20128;-67
2023/11/18 06:57:34;;;;;;;7.25;2.35;;;;;;;;;;5042842;28;20038;-66
2023/11/18 07:00:00;;;;;;;17.20;3.45;;;;;;;;;;5024280;28;20051;-67
2023/11/18 07:02:27;;;;;;;6.00;2.60;;;;;;;;;;5037964;28;20090;-67
2023/11/18 07:04:53;;;;;;;7.57;3.00;;;;;;;;;;5017244;28;20087;-67
2023/11/18 07:07:19;;;;;;;6.78;2.90;;;;;;;;;;5016777;28;20061;-67
2023/11/18 07:09:45;;;;;;;3.88;2.33;;;;;;;;;;5018049;28;20498;-66
2023/11/18 07:12:11;;;;;;;13.20;3.25;;;;;;;;;;5027018;28;20025;-66
2023/11/18 07:14:38;;;;;;;8.27;2.65;;;;;;;;;;5017900;28;20025;-67
2023/11/18 07:17:04;;;;;;;8.40;3.17;;;;;;;;;;5017493;28;20021;-68
2023/11/18 07:19:33;;;;;;;5.18;2.40;;;;;;;;;;5017783;28;20053;-68
2023/11/18 07:21:59;;;;;;;8.45;2.33;;;;;;;;;;5016040;28;20033;-69
2023/11/18 07:24:25;;;;;;;6.75;2.33;;;;;;;;;;5012691;28;20487;-69
2023/11/18 07:26:51;;;;;;;7.22;2.50;;;;;;;;;;5021254;28;20360;-68
2023/11/18 07:29:18;;;;;;;7.70;2.50;;;;;;;;;;5019800;28;20091;-68
2023/11/18 07:31:45;;;;;;;5.60;2.58;;;;;;;;;;5017893;28;20029;-68
2023/11/18 07:34:11;;;;;;;8.30;2.95;;;;;;;;;;5016094;28;20487;-72
2023/11/18 07:36:37;;;;;;;9.63;2.92;;;;;;;;;;5021610;28;20476;-68
2023/11/18 07:39:04;;;;;;;8.40;2.75;;;;;;;;;;5012267;28;20049;-68
2023/11/18 07:41:32;;;;;;;9.65;2.55;;;;;;;;;;5019382;28;20755;-71
2023/11/18 07:43:58;;;;;;;11.60;3.33;;;;;;;;;;5012021;28;20033;-69
2023/11/18 07:46:24;;;;;;;7.40;2.75;;;;;;;;;;5015098;28;20040;-67
2023/11/18 07:48:51;;;;;;;10.02;3.25;;;;;;;;;;5022274;28;20033;-69
2023/11/18 07:51:18;;;;;;;10.73;3.25;;;;;;;;;;5015181;28;20526;-68
2023/11/18 07:53:44;;;;;;;11.40;3.70;;;;;;;;;;5021357;28;20132;-69
2023/11/18 07:56:12;;;;;;;11.48;3.13;;;;;;;;;;5015848;28;20033;-68
2023/11/18 07:58:38;;;;;;;10.25;3.22;;;;;;;;;;5019602;28;20063;-69
2023/11/18 08:01:07;;;;;;;11.27;3.40;;;;;;;;;;5013928;28;20402;-68
2023/11/18 08:03:33;;;;;;;8.50;2.78;;;;;;;;;;5029270;28;20040;-69
2023/11/18 08:05:59;;;;;;;10.77;3.35;;;;;;;;;;5032872;28;20493;-72
2023/11/18 08:08:27;;;;;;;11.35;3.33;;;;;;;;;;5040525;28;20053;-74
2023/11/18 08:10:58;;;;;;;10.93;3.58;;;;;;;;;;5038558;28;20043;-72
2023/11/18 08:13:24;;;;;;;7.90;3.67;;;;;;;;;;5039178;28;20040;-72
2023/11/18 08:15:50;;;;;;;5.82;3.05;;;;;;;;;;5018538;28;20028;-70
2023/11/18 08:18:16;;;;;;;9.13;3.15;;;;;;;;;;5033390;28;20463;-71
2023/11/18 08:20:45;;;;;;;8.02;3.78;;;;;;;;;;5031794;28;20506;-70
2023/11/18 08:23:13;;;;;;;11.35;3.20;;;;;;;;;;5037355;28;20063;-70
2023/11/18 08:25:42;;;;;;;7.40;2.55;;;;;;;;;;5025091;28;20437;-70
2023/11/18 08:28:09;;;;;;;6.85;2.63;;;;;;;;;;5037200;28;20029;-70
2023/11/18 08:30:37;;;;;;;9.00;3.08;;;;;;;;;;5039188;28;20390;-70
2023/11/18 08:33:04;;;;;;;7.03;2.75;;;;;;;;;;5014041;28;20218;-72
2023/11/18 08:35:30;;;;;;;12.27;3.30;;;;;;;;;;5043632;28;20021;-70
2023/11/18 08:37:58;;;;;;;11.02;2.67;;;;;;;;;;5035687;28;20026;-72
2023/11/18 08:40:25;;;;;;;8.88;2.50;;;;;;;;;;5037745;28;20021;-71
2023/11/18 08:42:53;;;;;;;11.07;3.58;;;;;;;;;;5022178;28;20044;-72
2023/11/18 08:45:32;;;;;;;8.30;2.80;;;;;;;;;;5017115;28;20032;-70
2023/11/18 08:48:07;;;;;;;9.60;2.72;;;;;;;;;;5033442;28;20534;-71
2023/11/18 08:50:33;;;;;;;8.15;2.67;;;;;;;;;;5037257;28;20464;-72
2023/11/18 08:52:59;;;;;;;6.78;2.70;;;;;;;;;;5014580;28;20033;-70
2023/11/18 08:58:15;;;;;;;6.65;2.72;;;;;;;;;;5040080;28;20041;-71
2023/11/18 09:00:48;;;;;;;10.55;3.97;;;;;;;;;;5042064;28;20021;-70
2023/11/18 09:03:24;;;;;;;7.25;2.63;;;;;;;;;;5039075;28;20063;-71
2023/11/18 09:05:57;;;;;;;5.88;2.90;;;;;;;;;;5041703;28;20124;-70
2023/11/18 09:08:24;;;;;;;12.07;3.83;;;;;;;;;;5017714;28;20561;-71
2023/11/18 09:10:53;;;;;;;11.07;3.10;;;;;;;;;;5034325;28;20599;-71
2023/11/18 09:13:29;;;;;;;10.02;3.05;;;;;;;;;;5021821;28;20045;-72
2023/11/18 09:16:02;;;;;;;10.75;4.35;;;;;;;;;;5039385;28;20123;-72
2023/11/18 09:18:30;;;;;;;9.48;3.17;;;;;;;;;;5034568;28;20169;-72
2023/11/18 09:21:00;;;;;;;11.43;3.00;;;;;;;;;;5043432;28;20621;-72
2023/11/18 09:23:27;;;;;;;12.75;3.03;;;;;;;;;;5042271;28;20021;-71
2023/11/18 09:25:53;;;;;;;17.55;3.42;;;;;;;;;;5039960;28;20024;-71
2023/11/18 09:28:29;;;;;;;7.15;3.10;;;;;;;;;;5037127;28;20041;-71
2023/11/18 09:31:02;;;;;;;8.82;3.15;;;;;;;;;;5024675;28;20047;-71
2023/11/18 09:33:32;;;;;;;11.23;3.28;;;;;;;;;;5044352;28;20570;-71
2023/11/18 09:36:02;;;;;;;7.38;2.70;;;;;;;;;;5020272;28;20053;-71
2023/11/18 09:38:32;;;;;;;8.15;2.85;;;;;;;;;;5038048;28;20116;-71
2023/11/18 09:41:03;;;;;;;10.48;2.90;;;;;;;;;;5039292;28;20021;-71
2023/11/18 09:43:32;;;;;;;11.23;3.10;;;;;;;;;;5043401;28;20407;-71
2023/11/18 09:46:03;;;;;;;9.52;3.13;;;;;;;;;;5038953;28;20438;-71
2023/11/18 09:48:38;;;;;;;9.35;2.85;;;;;;;;;;5040796;28;20036;-71
2023/11/18 09:51:06;;;;;;;11.15;4.13;;;;;;;;;;5033031;28;20094;-71
2023/11/18 09:53:37;;;;;;;14.63;3.85;;;;;;;;;;5040021;28;20183;-71
2023/11/18 09:56:18;;;;;;;12.82;3.22;;;;;;;;;;5037330;28;20021;-71
2023/11/18 09:58:56;;;;;;;14.68;3.42;;;;;;;;;;5043301;28;20028;-69
2023/11/18 10:01:27;;;;;;;9.15;2.88;;;;;;;;;;5018179;28;20025;-71
2023/11/18 10:03:58;;;;;;;12.88;2.95;;;;;;;;;;5024497;28;20514;-71
2023/11/18 10:06:26;;;;;;;11.57;3.55;;;;;;;;;;5039497;28;20055;-72
2023/11/18 10:09:14;;;;;;;12.60;3.40;;;;;;;;;;5040922;28;20118;-72
2023/11/18 10:11:42;;;;;;;12.20;3.20;;;;;;;;;;5029035;28;20052;-71
2023/11/18 10:14:10;;;;;;;9.32;3.20;;;;;;;;;;5045511;28;20211;-72
2023/11/18 10:16:38;;;;;;;14.75;3.05;;;;;;;;;;5040477;28;20545;-71
2023/11/18 10:19:08;;;;;;;7.47;3.05;;;;;;;;;;5044302;28;20057;-71
2023/11/18 10:21:39;;;;;;;14.02;3.70;;;;;;;;;;5032855;28;20288;-71
2023/11/18 10:24:19;;;;;;;12.30;3.47;;;;;;;;;;5025723;28;20043;-71
2023/11/18 10:26:47;;;;;;;9.18;2.80;;;;;;;;;;5042080;28;20017;-70
2023/11/18 10:29:18;;;;;;;12.98;3.22;;;;;;;;;;5044744;28;20078;-70
2023/11/18 10:31:47;;;;;;;8.05;3.10;;;;;;;;;;5037464;28;20398;-70
2023/11/18 10:34:17;;;;;;;12.02;3.05;;;;;;;;;;5039628;28;20080;-70
2023/11/18 10:37:03;;;;;;;16.55;4.38;;;;;;;;;;5044103;28;20050;-74
2023/11/18 10:39:31;;;;;;;;;;;;;;;;;;5030175;28;20037;-72
2023/11/18 10:42:00;;;;;;;14.75;3.45;;;;;;;;;;5037908;28;19915;-73
2023/11/18 10:44:27;;;;;;;9.40;2.88;;;;;;;;;;5019470;28;20088;-73
2023/11/18 10:46:54;;;;;;;8.77;3.20;;;;;;;;;;5032856;28;20033;-73
2023/11/18 10:49:23;;;;;;;11.30;3.25;;;;;;;;;;5020081;28;20021;-73
2023/11/18 10:51:53;;;;;;;11.77;3.35;;;;;;;;;;5036613;28;20502;-73
2023/11/18 10:54:20;;;;;;;8.32;2.63;;;;;;;;;;5039497;28;20033;-73
2023/11/18 10:56:48;;;;;;;9.48;2.72;;;;;;;;;;5014921;28;20094;-73
2023/11/18 10:59:20;;;;;;;9.75;3.10;;;;;;;;;;5041492;28;20069;-74
2023/11/18 11:01:48;;;;;;;7.53;2.45;;;;;;;;;;5022791;28;20817;-73
2023/11/18 11:07:13;;;;;;;11.82;2.88;;;;;;;;;;4999933;28;20124;-72
2023/11/18 11:09:41;;;;;;;5.35;2.55;;;;;;;;;;5017161;28;20021;-73
2023/11/18 11:12:16;;;;;;;14.60;3.83;;;;;;;;;;5038356;28;20474;-72
2023/11/18 11:14:59;;;;;;;12.88;2.92;;;;;;;;;;5041692;28;20045;-73
2023/11/18 11:17:33;;;;;;;10.25;3.38;;;;;;;;;;5036631;28;20024;-73
2023/11/18 11:23:10;;;;;;;12.50;2.90;;;;;;;;;;5039827;28;20584;-74
2023/11/18 11:25:48;;;;;;;9.70;3.00;;;;;;;;;;5002089;28;20166;-74
2023/11/18 11:28:21;;;;;;;10.68;3.03;;;;;;;;;;5038675;28;20033;-75
2023/11/18 11:30:55;;;;;;;8.25;3.35;;;;;;;;;;5037806;28;20158;-73
2023/11/18 11:33:54;;;;;;;9.63;3.35;;;;;;;;;;5042022;28;20143;-73
2023/11/18 11:36:27;;;;;;;7.30;2.88;;;;;;;;;;4986142;28;20048;-73
2023/11/18 11:38:55;;;;;;;8.25;2.70;;;;;;;;;;5039796;28;20052;-70
2023/11/18 11:41:26;;;;;;;7.82;2.40;;;;;;;;;;5046028;28;20029;-72
2023/11/18 11:43:58;;;;;;;8.30;2.50;;;;;;;;;;5023158;28;20561;-70
2023/11/18 11:46:27;;;;;;;12.27;3.22;;;;;;;;;;5033636;28;20025;-72
2023/11/18 11:48:55;;;;;;;11.10;3.15;;;;;;;;;;5036735;28;20059;-71
2023/11/18 11:51:40;;;;;;;5.47;2.47;;;;;;;;;;5037553;28;20032;-71
2023/11/18 11:54:15;;;;;;;14.15;2.85;;;;;;;;;;5030010;28;20090;-72
2023/11/18 11:56:50;;;;;;;6.93;2.47;;;;;;;;;;5015949;28;20693;-71
2023/11/18 11:59:17;;;;;;;3.95;2.30;;;;;;;;;;5030554;28;20032;-72
2023/11/18 12:01:46;;;;;;;7.43;2.45;;;;;;;;;;5026563;28;20033;-69
2023/11/18 12:04:21;;;;;;;5.88;2.65;;;;;;;;;;5038546;28;20041;-68
2023/11/18 12:06:47;;;;;;;10.75;2.55;;;;;;;;;;5036918;28;20151;-70
2023/11/18 12:09:21;;;;;;;9.55;3.28;;;;;;;;;;5040060;28;20036;-68
2023/11/18 12:11:51;;;;;;;5.60;2.25;;;;;;;;;;5028350;28;20478;-67
2023/11/18 12:17:00;;;;;;;6.45;3.47;;;;;;;;;;5040685;28;20021;-71
2023/11/18 12:19:32;;;;;;;13.05;2.80;;;;;;;;;;5034756;28;20016;-67
2023/11/18 12:22:00;;;;;;;8.23;2.85;;;;;;;;;;5019910;28;20049;-66
2023/11/18 12:24:29;;;;;;;9.27;2.50;;;;;;;;;;5025137;28;20391;-68
2023/11/18 12:26:56;;;;;;;12.45;2.90;;;;;;;;;;5037968;28;20088;-69
2023/11/18 12:29:34;;;;;;;11.10;3.95;;;;;;;;;;5020850;28;20024;-66
2023/11/18 12:32:03;;;;;;;12.27;4.20;;;;;;;;;;5014677;28;20451;-68
2023/11/18 12:34:48;;;;;;;10.05;3.22;;;;;;;;;;5018545;28;20033;-68
2023/11/18 12:37:21;;;;;;;11.00;3.38;;;;;;;;;;5021673;28;20100;-68
2023/11/18 12:39:54;;;;;;;5.72;2.60;;;;;;;;;;5039693;28;20032;-69
2023/11/18 12:42:41;;;;;;;11.57;3.50;;;;;;;;;;5025369;28;20021;-68
2023/11/18 12:45:50;;;;;;;15.05;3.95;;;;;;;;;;5037130;28;20029;-66
2023/11/18 12:48:20;;;;;;;8.23;3.45;;;;;;;;;;4975335;28;20098;-68
2023/11/18 12:50:51;;;;;;;8.88;3.33;;;;;;;;;;5017805;28;20505;-69
2023/11/18 12:53:18;;;;;;;11.85;4.50;;;;;;;;;;5038219;28;20049;-68
2023/11/18 12:55:44;;;;;;;9.43;3.55;;;;;;;;;;5041384;28;20024;-69
2023/11/18 12:58:11;;;;;;;12.40;4.00;;;;;;;;;;5035877;28;20116;-69
2023/11/18 13:00:42;;;;;;;12.85;4.13;;;;;;;;;;5019907;28;20481;-72
2023/11/18 13:03:10;;;;;;;9.57;3.20;;;;;;;;;;5036876;28;20072;-70
2023/11/18 13:05:39;;;;;;;8.80;3.00;;;;;;;;;;5025725;28;20505;-69
2023/11/18 13:08:11;;;;;;;9.63;3.10;;;;;;;;;;5040658;28;20033;-70
2023/11/18 13:10:44;;;;;;;10.80;2.97;;;;;;;;;;5040279;28;20029;-67
2023/11/18 13:13:13;;;;;;;7.18;2.25;;;;;;;;;;5018726;28;20029;-71
2023/11/18 13:15:40;;;;;;;14.18;3.03;;;;;;;;;;5035413;28;20021;-66
2023/11/18 13:18:06;;;;;;;10.00;3.30;;;;;;;;;;5035996;28;20228;-66
2023/11/18 13:20:37;;;;;;;10.05;3.33;;;;;;;;;;5039152;28;20056;-67
2023/11/18 13:23:08;;;;;;;9.52;2.45;;;;;;;;;;5038534;28;20052;-69
2023/11/18 13:25:39;;;;;;;9.93;3.15;;;;;;;;;;5044397;28;20028;-69
2023/11/18 13:28:12;;;;;;;12.90;2.90;;;;;;;;;;5028779;28;20036;-67
2023/11/18 13:30:39;;;;;;;16.48;3.97;;;;;;;;;;5021682;28;20039;-69
2023/11/18 13:33:07;;;;;;;8.98;3.47;;;;;;;;;;5036808;28;20580;-69
2023/11/18 13:35:33;;;;;;;13.35;5.25;;;;;;;;;;5039732;28;20031;-68
2023/11/18 13:37:59;;;;;;;12.70;4.68;;;;;;;;;;5028702;28;20546;-68
2023/11/18 13:40:26;;;;;;;18.00;8.88;;;;;;;;;;5024108;28;20036;-68
2023/11/18 13:43:08;;;;;;;17.98;5.00;;;;;;;;;;5039724;28;20037;-69
2023/11/18 13:45:35;;;;;;;14.45;5.20;;;;;;;;;;5036079;28;20091;-68
2023/11/18 13:48:02;;;;;;;21.65;5.68;;;;;;;;;;5025394;28;20036;-68
2023/11/18 13:50:28;;;;;;;9.85;3.30;;;;;;;;;;5041129;28;20118;-70
2023/11/18 13:52:55;;;;;;;10.43;4.07;;;;;;;;;;5023529;28;20044;-68
2023/11/18 13:55:28;;;;;;;14.38;5.15;;;;;;;;;;5035303;28;20700;-67
2023/11/18 13:57:55;;;;;;;13.60;6.53;;;;;;;;;;5017915;28;20040;-69
2023/11/18 14:00:26;;;;;;;11.88;4.55;;;;;;;;;;5016562;28;20663;-69
2023/11/18 14:02:53;;;;;;;11.73;4.63;;;;;;;;;;5038037;28;20185;-67
2023/11/18 14:05:24;;;;;;;8.73;4.00;;;;;;;;;;5037625;28;20096;-68
2023/11/18 14:07:50;;;;;;;13.50;4.20;;;;;;;;;;5040735;28;20406;-68
2023/11/18 14:10:19;;;;;;;11.75;3.53;;;;;;;;;;5033617;28;20114;-68
2023/11/18 14:13:12;;;;;;;10.32;3.83;;;;;;;;;;5038981;28;20040;-68
2023/11/18 14:15:40;;;;;;;12.30;4.03;;;;;;;;;;5015780;28;20029;-67
2023/11/18 14:18:09;;;;;;;10.55;3.72;;;;;;;;;;5017056;28;20484;-68
2023/11/18 14:20:35;;;;;;;12.45;3.35;;;;;;;;;;5034986;28;20025;-70
2023/11/18 14:23:03;;;;;;;9.52;3.47;;;;;;;;;;5021826;28;20039;-71
2023/11/18 14:25:39;;;;;;;11.95;3.75;;;;;;;;;;5041745;28;20710;-71
2023/11/18 14:28:08;;;;;;;10.82;3.33;;;;;;;;;;5038024;28;20028;-73
2023/11/18 14:30:35;;;;;;;15.20;3.85;;;;;;;;;;5023838;28;20124;-71
2023/11/18 14:33:03;;;;;;;16.30;3.95;;;;;;;;;;5044059;28;20498;-71
2023/11/18 14:35:30;;;;;;;11.75;3.40;;;;;;;;;;5024979;28;20021;-70
2023/11/18 14:37:56;;;;;;;18.60;3.95;;;;;;;;;;5018300;28;20198;-70
2023/11/18 14:40:23;;;;;;;13.07;3.20;;;;;;;;;;5036406;28;20068;-71
2023/11/18 14:42:52;;;;;;;16.20;4.28;;;;;;;;;;5040006;28;20021;-70
2023/11/18 14:45:18;;;;;;;14.38;4.60;;;;;;;;;;5041551;28;20024;-71
2023/11/18 14:47:45;;;;;;;18.30;3.90;;;;;;;;;;5043371;28;20041;-72
2023/11/18 14:50:17;;;;;;;12.82;3.55;;;;;;;;;;5022222;28;20162;-71
2023/11/18 14:52:59;;;;;;;11.38;4.20;;;;;;;;;;5045063;28;20068;-70
2023/11/18 14:55:29;;;;;;;10.35;3.90;;;;;;;;;;5043660;28;20029;-70
2023/11/18 14:57:55;;;;;;;11.50;4.45;;;;;;;;;;5041334;28;20021;-69
2023/11/18 15:00:22;;;;;;;15.68;3.72;;;;;;;;;;5028523;28;20477;-71